Industrial Dart — V2DE6 — position and weather

sailwx.info

Track history (hours):
 
Tides and Currents Weather Stations Pressure Air Temp Water Temp Dewpoint Dewpoint Depression Visibility Wind Speed Wind Dir Waves Ship Positions

Industrial Dart

Last reported at 2018-Feb-16 04:19 UTC. Time now 2018-Feb-24 06:35 UTC.
Position N 23°21' E 117°38'.
Warning: this ship's position is 8 days out of date.

Length 120 m; draft 5.9 m.

Type: Ship. MMSI: 305187000.

Date/timePositionNaut miles runAvg speedWind from/ knotsBaromVisibWave heightAir tempDewpointWater temp
2018-Feb-16 04:19N 23°21' E 117°38'514.8
2018-Feb-16 04:00N 23°24' E 117°43'714.3
2018-Feb-16 03:31N 23°27' E 117°50'1014.0
2018-Feb-16 02:49N 23°32' E 117°58'  
2018-Feb-09 22:37N 37°50' E 121°52'215.2
2018-Feb-09 22:31N 37°50' E 121°50'  
2018-Feb-07 07:43N 37°56' E 121°10'315.4
2018-Feb-07 07:30N 37°55' E 121°14'815.3
2018-Feb-07 07:00N 37°53' E 121°23'815.2
2018-Feb-07 06:30N 37°50' E 121°33'815.1
2018-Feb-07 06:00N 37°49' E 121°42'715.1
2018-Feb-07 05:30N 37°47' E 121°51'815.0
2018-Feb-07 05:00N 37°45' E 122°00'  
Track history (hours):
 
Tides and Currents Weather Stations Pressure Air Temp Water Temp Dewpoint Dewpoint Depression Visibility Wind Speed Wind Dir Waves Ship Positions

Industrial Dart

Last reported at 2018-Feb-16 04:19 UTC. Time now 2018-Feb-24 06:35 UTC.
Position N 23°21' E 117°38'.
Warning: this ship's position is 8 days out of date.

Length 120 m; draft 5.9 m.

Type: Ship. MMSI: 305187000.

Date/timePositionNaut miles runAvg speedWind from/ knotsBaromVisibWave heightAir tempDewpointWater temp
2018-Feb-16 04:19N 23°21' E 117°38'514.8
2018-Feb-16 04:00N 23°24' E 117°43'714.3
2018-Feb-16 03:31N 23°27' E 117°50'1014.0
2018-Feb-16 02:49N 23°32' E 117°58'  
2018-Feb-09 22:37N 37°50' E 121°52'215.2
2018-Feb-09 22:31N 37°50' E 121°50'  
2018-Feb-07 07:43N 37°56' E 121°10'315.4
2018-Feb-07 07:30N 37°55' E 121°14'815.3
2018-Feb-07 07:00N 37°53' E 121°23'815.2
2018-Feb-07 06:30N 37°50' E 121°33'815.1
2018-Feb-07 06:00N 37°49' E 121°42'715.1
2018-Feb-07 05:30N 37°47' E 121°51'815.0
2018-Feb-07 05:00N 37°45' E 122°00'  

Dump ship's entire track history